createdAt,value
2019-04-22T00:01:20.560Z,15.23
2019-04-22T00:03:56.784Z,15.17
2019-04-22T00:06:44.042Z,15.13
2019-04-22T00:09:24.021Z,15.06
2019-04-22T00:12:02.177Z,14.99
2019-04-22T00:14:24.580Z,14.93
2019-04-22T00:17:06.827Z,14.87
2019-04-22T00:19:37.236Z,14.85
2019-04-22T00:22:08.040Z,14.77
2019-04-22T00:24:39.078Z,14.70
2019-04-22T00:27:20.704Z,14.62
2019-04-22T00:30:00.017Z,14.59
2019-04-22T00:32:27.193Z,14.52
2019-04-22T00:35:04.394Z,14.44
2019-04-22T00:37:34.657Z,14.38
2019-04-22T00:40:10.959Z,14.33
2019-04-22T00:42:40.928Z,14.25
2019-04-22T00:45:11.782Z,14.22
2019-04-22T00:47:46.246Z,14.15
2019-04-22T00:50:20.682Z,14.10
2019-04-22T00:52:57.975Z,14.08
2019-04-22T00:55:24.801Z,14.07
2019-04-22T00:57:54.628Z,13.98
2019-04-22T01:00:35.248Z,13.92
2019-04-22T01:03:02.619Z,13.86
2019-04-22T01:05:34.501Z,13.79
2019-04-22T01:08:19.695Z,13.71
2019-04-22T01:10:39.089Z,13.63
2019-04-22T01:13:14.104Z,13.52
2019-04-22T01:15:54.074Z,13.51
2019-04-22T01:18:21.091Z,13.46
2019-04-22T01:21:05.865Z,13.41
2019-04-22T01:23:23.709Z,13.33
2019-04-22T01:25:55.063Z,13.28
2019-04-22T01:28:23.865Z,13.23
2019-04-22T01:30:49.009Z,13.16
2019-04-22T01:33:19.137Z,13.13
2019-04-22T01:36:02.287Z,13.07
2019-04-22T01:38:38.993Z,13.01
2019-04-22T01:41:16.490Z,12.97
2019-04-22T01:43:58.791Z,12.89
2019-04-22T01:46:25.244Z,12.84
2019-04-22T01:48:55.462Z,12.73
2019-04-22T01:51:42.025Z,12.74
2019-04-22T01:54:05.578Z,12.72
2019-04-22T01:56:34.975Z,12.69
2019-04-22T01:58:58.942Z,12.64
2019-04-22T02:01:43.678Z,12.59
2019-04-22T02:04:17.281Z,12.58
2019-04-22T02:09:24.472Z,12.53
2019-04-22T02:12:00.561Z,12.47
2019-04-22T02:14:29.074Z,12.41
2019-04-22T02:16:58.046Z,12.35
2019-04-22T02:19:30.436Z,12.26
2019-04-22T02:22:03.985Z,12.21
2019-04-22T02:24:39.819Z,12.19
2019-04-22T02:27:10.751Z,12.19
2019-04-22T02:29:44.451Z,12.16
2019-04-22T02:32:27.782Z,12.16
2019-04-22T02:37:18.826Z,12.08
2019-04-22T02:39:55.439Z,12.03
2019-04-22T02:47:27.204Z,11.95
2019-04-22T02:50:05.171Z,11.97
2019-04-22T02:52:41.252Z,11.93
2019-04-22T02:55:18.982Z,11.89
2019-04-22T03:00:21.820Z,11.80
2019-04-22T03:03:00.994Z,11.75
2019-04-22T03:05:27.685Z,11.69
2019-04-22T03:07:58.955Z,11.65
2019-04-22T03:10:38.550Z,11.63
2019-04-22T03:13:01.022Z,11.58
2019-04-22T03:18:09.725Z,11.47
2019-04-22T03:20:42.829Z,11.44
2019-04-22T03:28:30.921Z,11.33
2019-04-22T03:44:39.100Z,11.27
2019-04-22T03:52:16.353Z,11.28
2019-04-22T03:59:55.041Z,11.31
2019-04-22T04:04:52.333Z,11.25
2019-04-22T04:12:38.542Z,11.11
2019-04-22T04:15:13.927Z,11.13
2019-04-22T04:17:44.167Z,11.12
2019-04-22T04:25:29.451Z,11.11
2019-04-22T04:37:54.855Z,11.07
2019-04-22T04:43:05.398Z,11.06
2019-04-22T04:48:18.499Z,11.08
2019-04-22T04:50:51.074Z,11.07
2019-04-22T04:53:22.030Z,11.08
2019-04-22T04:55:47.162Z,11.00
2019-04-22T05:01:00.591Z,11.08
2019-04-22T05:03:33.102Z,11.12
2019-04-22T05:05:59.270Z,11.12
2019-04-22T05:08:54.695Z,11.17
2019-04-22T05:18:50.914Z,11.34
2019-04-22T05:26:07.297Z,11.51
2019-04-22T05:28:35.309Z,11.61
2019-04-22T05:31:15.418Z,11.67
2019-04-22T05:47:08.354Z,12.20
2019-04-22T05:57:14.532Z,12.55
2019-04-22T05:59:45.762Z,12.76
2019-04-22T06:02:25.373Z,12.87
2019-04-22T06:09:54.985Z,13.32
2019-04-22T06:14:53.810Z,13.66
2019-04-22T06:17:31.729Z,13.85
2019-04-22T06:20:07.683Z,14.10
2019-04-22T06:40:45.050Z,15.68
2019-04-22T06:43:13.593Z,15.85
2019-04-22T06:45:39.938Z,16.11
2019-04-22T06:48:19.594Z,16.18
2019-04-22T06:50:47.550Z,16.29
2019-04-22T06:53:16.988Z,16.41
2019-04-22T06:55:54.004Z,16.55
2019-04-22T06:58:20.046Z,16.75
2019-04-22T07:01:00.794Z,16.96
2019-04-22T07:06:00.233Z,17.16
2019-04-22T07:11:04.519Z,17.46
2019-04-22T07:13:56.590Z,17.65
2019-04-22T07:23:38.612Z,18.25
2019-04-22T07:26:14.571Z,18.61
2019-04-22T07:31:16.000Z,18.77
2019-04-22T07:38:48.656Z,19.61
2019-04-22T07:41:29.052Z,19.82
2019-04-22T07:56:40.950Z,20.61
2019-04-22T08:01:56.302Z,20.85
2019-04-22T08:04:49.395Z,20.98
2019-04-22T08:07:14.576Z,21.10
2019-04-22T08:09:48.000Z,21.29
2019-04-22T08:12:02.115Z,21.32
2019-04-22T08:14:47.127Z,21.66
2019-04-22T08:17:43.212Z,21.83
2019-04-22T08:19:48.408Z,21.96
2019-04-22T08:22:15.687Z,22.13
2019-04-22T08:24:54.291Z,22.03
2019-04-22T08:27:33.401Z,21.67
2019-04-22T08:32:41.619Z,21.91
2019-04-22T08:35:20.243Z,21.99
2019-04-22T08:38:02.430Z,21.97
2019-04-22T08:40:29.063Z,22.31
2019-04-22T08:43:02.178Z,22.59
2019-04-22T08:45:35.124Z,22.68
2019-04-22T08:47:55.281Z,23.00
2019-04-22T08:50:33.498Z,22.99
2019-04-22T08:53:08.357Z,23.24
2019-04-22T08:58:25.203Z,23.61
2019-04-22T09:00:51.337Z,23.66
2019-04-22T09:03:18.832Z,23.48
2019-04-22T09:08:32.516Z,23.87
2019-04-22T09:10:58.547Z,24.05
2019-04-22T09:13:35.603Z,24.13
2019-04-22T09:16:16.574Z,24.04
2019-04-22T09:18:41.021Z,24.24
2019-04-22T09:23:44.511Z,24.87
2019-04-22T09:26:18.193Z,24.84
2019-04-22T09:31:11.740Z,24.87
2019-04-22T09:33:43.383Z,24.84
2019-04-22T09:38:55.729Z,24.84
2019-04-22T09:41:27.666Z,24.86
2019-04-22T09:44:02.607Z,24.92
2019-04-22T09:46:39.043Z,25.11
2019-04-22T09:49:12.299Z,25.15
2019-04-22T09:51:36.969Z,25.45
2019-04-22T09:54:19.415Z,25.51
2019-04-22T09:56:47.062Z,25.63
2019-04-22T10:02:01.206Z,26.02
2019-04-22T10:04:33.061Z,26.19
2019-04-22T10:07:13.127Z,26.56
2019-04-22T10:12:30.455Z,26.52
2019-04-22T10:17:25.182Z,26.50
2019-04-22T10:25:00.636Z,26.39
2019-04-22T10:27:36.498Z,26.08
2019-04-22T10:30:04.419Z,26.24
2019-04-22T10:32:40.620Z,26.27
2019-04-22T10:35:12.284Z,26.25
2019-04-22T10:37:40.783Z,26.03
2019-04-22T10:40:21.641Z,26.11
2019-04-22T10:43:01.052Z,26.62
2019-04-22T10:48:32.422Z,26.85
2019-04-22T10:51:22.296Z,26.42
2019-04-22T10:53:53.684Z,26.93
2019-04-22T10:58:56.613Z,26.97
2019-04-22T11:01:32.154Z,26.77
2019-04-22T11:04:30.487Z,26.55
2019-04-22T11:09:55.073Z,26.55
2019-04-22T11:14:51.723Z,26.53
2019-04-22T11:19:55.409Z,26.45
2019-04-22T11:24:59.197Z,26.80
2019-04-22T11:32:30.836Z,26.67
2019-04-22T11:37:34.622Z,26.14
2019-04-22T11:40:18.991Z,26.31
2019-04-22T11:42:41.052Z,26.16
2019-04-22T11:45:15.288Z,26.25
2019-04-22T11:48:05.582Z,26.52
2019-04-22T11:53:10.985Z,25.71
2019-04-22T11:58:12.908Z,26.10
2019-04-22T12:03:18.812Z,25.82
2019-04-22T12:10:57.111Z,25.77
2019-04-22T12:15:56.891Z,26.33
2019-04-22T12:20:59.235Z,25.90
2019-04-22T12:23:30.598Z,25.79
2019-04-22T12:26:05.898Z,26.09
2019-04-22T12:28:35.165Z,26.13
2019-04-22T12:31:06.542Z,26.11
2019-04-22T12:33:39.278Z,25.95
2019-04-22T12:36:16.107Z,25.62
2019-04-22T12:38:47.595Z,25.67
2019-04-22T12:41:21.632Z,25.51
2019-04-22T12:43:53.822Z,25.80
2019-04-22T12:46:26.136Z,25.94
2019-04-22T12:49:00.283Z,25.88
2019-04-22T12:51:31.564Z,25.93
2019-04-22T12:54:03.354Z,26.19
2019-04-22T12:56:35.455Z,26.00
2019-04-22T12:59:07.681Z,26.04
2019-04-22T13:01:39.196Z,26.00
2019-04-22T13:04:15.292Z,26.11
2019-04-22T13:06:44.016Z,25.95
2019-04-22T13:09:17.585Z,25.44
2019-04-22T13:11:48.965Z,25.65
2019-04-22T13:14:21.214Z,25.31
2019-04-22T13:16:55.086Z,25.38
2019-04-22T13:19:27.989Z,25.51
2019-04-22T13:21:59.152Z,25.59
2019-04-22T13:27:01.416Z,25.39
2019-04-22T13:32:04.755Z,25.33
2019-04-22T13:37:07.358Z,25.51
2019-04-22T13:42:12.543Z,25.59
2019-04-22T13:47:32.636Z,25.43
2019-04-22T13:50:32.884Z,25.25
2019-04-22T13:52:54.974Z,25.32
2019-04-22T13:55:16.224Z,25.26
2019-04-22T13:57:41.389Z,25.16
2019-04-22T13:59:59.777Z,25.29
2019-04-22T14:02:48.494Z,25.39
2019-04-22T14:05:24.571Z,25.34
2019-04-22T14:10:24.863Z,25.05
2019-04-22T14:12:57.050Z,25.05
2019-04-22T14:17:58.830Z,25.03
2019-04-22T14:20:31.437Z,25.03
2019-04-22T14:25:32.650Z,25.18
2019-04-22T14:28:09.525Z,25.16
2019-04-22T14:30:36.974Z,25.08
2019-04-22T14:33:09.779Z,25.18
2019-04-22T14:40:41.414Z,24.97
2019-04-22T14:43:44.910Z,24.76
2019-04-22T14:46:26.421Z,24.78
2019-04-22T14:51:13.157Z,24.83
2019-04-22T14:55:54.753Z,24.73
2019-04-22T14:58:26.824Z,24.67
2019-04-22T15:03:33.470Z,24.51
2019-04-22T15:06:08.416Z,24.61
2019-04-22T15:08:39.884Z,24.46
2019-04-22T15:11:11.060Z,24.27
2019-04-22T15:13:41.173Z,24.17
2019-04-22T15:16:36.368Z,24.05
2019-04-22T15:19:27.614Z,24.24
2019-04-22T15:22:02.991Z,24.21
2019-04-22T15:24:34.613Z,24.19
2019-04-22T15:27:08.643Z,24.30
2019-04-22T15:29:41.173Z,24.24
2019-04-22T15:32:13.503Z,24.31
2019-04-22T15:34:44.760Z,24.26
2019-04-22T15:37:16.082Z,24.13
2019-04-22T15:39:47.884Z,24.09
2019-04-22T15:42:25.752Z,24.04
2019-04-22T15:47:22.827Z,23.80
2019-04-22T15:52:33.783Z,23.71
2019-04-22T15:55:02.974Z,23.51
2019-04-22T15:57:39.842Z,23.44
2019-04-22T16:00:25.458Z,23.42
2019-04-22T16:02:47.952Z,23.46
2019-04-22T16:05:20.286Z,23.53
2019-04-22T16:07:53.067Z,23.46
2019-04-22T16:10:25.908Z,23.37
2019-04-22T16:13:07.530Z,23.28
2019-04-22T16:15:30.805Z,23.26
2019-04-22T16:18:04.793Z,23.14
2019-04-22T16:20:34.644Z,23.14
2019-04-22T16:23:32.203Z,23.05
2019-04-22T16:26:26.359Z,23.02
2019-04-22T16:28:59.517Z,22.90
2019-04-22T16:31:31.338Z,23.02
2019-04-22T16:34:02.752Z,22.93
2019-04-22T16:36:34.572Z,22.89
2019-04-22T16:39:09.082Z,22.88
2019-04-22T16:41:40.154Z,22.89
2019-04-22T16:44:12.350Z,22.97
2019-04-22T16:46:43.759Z,22.73
2019-04-22T16:51:42.754Z,22.49
2019-04-22T16:54:13.933Z,22.44
2019-04-22T16:56:45.778Z,22.28
2019-04-22T16:59:17.185Z,22.20
2019-04-22T17:02:10.707Z,22.19
2019-04-22T17:05:05.136Z,22.17
2019-04-22T17:10:08.236Z,22.12
2019-04-22T17:12:48.747Z,22.07
2019-04-22T17:15:14.291Z,21.99
2019-04-22T17:17:45.306Z,21.91
2019-04-22T17:20:18.465Z,21.90
2019-04-22T17:22:49.631Z,21.82
2019-04-22T17:25:20.742Z,21.86
2019-04-22T17:27:52.085Z,21.87
2019-04-22T17:30:24.374Z,21.81
2019-04-22T17:32:56.705Z,21.79
2019-04-22T17:35:28.394Z,21.63
2019-04-22T17:38:08.945Z,21.70
2019-04-22T17:40:49.489Z,21.57
2019-04-22T17:43:36.172Z,21.46
2019-04-22T17:46:09.074Z,21.42
2019-04-22T17:49:04.410Z,21.35
2019-04-22T17:51:29.838Z,21.33
2019-04-22T17:53:59.896Z,21.26
2019-04-22T17:56:30.887Z,21.18
2019-04-22T17:59:10.515Z,21.08
2019-04-22T18:01:37.976Z,21.03
2019-04-22T18:03:57.162Z,21.01
2019-04-22T18:07:15.797Z,20.86
2019-04-22T18:10:06.668Z,20.82
2019-04-22T18:12:22.405Z,20.72
2019-04-22T18:14:48.504Z,20.69
2019-04-22T18:17:32.493Z,20.55
2019-04-22T18:20:04.666Z,20.52
2019-04-22T18:22:39.604Z,20.55
2019-04-22T18:25:11.398Z,20.28
2019-04-22T18:28:06.115Z,20.27
2019-04-22T18:30:33.576Z,20.34
2019-04-22T18:33:22.986Z,20.16
2019-04-22T18:35:53.835Z,20.03
2019-04-22T18:38:44.407Z,19.96
2019-04-22T18:41:04.938Z,19.92
2019-04-22T18:45:29.606Z,19.84
2019-04-22T18:46:32.956Z,19.73
2019-04-22T18:49:11.154Z,19.55
2019-04-22T18:51:51.868Z,19.53
2019-04-22T18:54:54.951Z,19.51
2019-04-22T18:57:26.343Z,19.45
2019-04-22T18:59:48.412Z,19.22
2019-04-22T19:02:37.762Z,19.13
2019-04-22T19:05:26.552Z,19.09
2019-04-22T19:08:17.895Z,19.07
2019-04-22T19:11:00.599Z,18.93
2019-04-22T19:16:17.105Z,18.81
2019-04-22T19:18:41.539Z,18.79
2019-04-22T19:21:13.612Z,18.69
2019-04-22T19:23:54.059Z,18.68
2019-04-22T19:26:48.263Z,18.67
2019-04-22T19:29:12.274Z,18.63
2019-04-22T19:31:56.975Z,18.52
2019-04-22T19:34:28.859Z,18.47
2019-04-22T19:39:28.708Z,18.26
2019-04-22T19:42:12.045Z,18.27
2019-04-22T19:44:37.719Z,18.23
2019-04-22T19:47:40.150Z,18.17
2019-04-22T19:49:54.562Z,18.15
2019-04-22T19:52:19.494Z,18.10
2019-04-22T19:54:47.390Z,18.00
2019-04-22T19:57:22.489Z,17.95
2019-04-22T19:59:55.892Z,17.82
2019-04-22T20:02:57.484Z,17.81
2019-04-22T20:05:43.667Z,17.71
2019-04-22T20:08:14.284Z,17.64
2019-04-22T20:10:48.874Z,17.64
2019-04-22T20:13:27.023Z,17.63
2019-04-22T20:15:43.455Z,17.43
2019-04-22T20:21:01.008Z,17.37
2019-04-22T20:23:25.596Z,17.29
2019-04-22T20:25:56.253Z,17.23
2019-04-22T20:28:39.207Z,17.18
2019-04-22T20:31:08.383Z,17.12
2019-04-22T20:33:48.115Z,17.06
2019-04-22T20:36:36.454Z,17.06
2019-04-22T20:38:46.271Z,17.03
2019-04-22T20:41:17.084Z,17.06
2019-04-22T20:44:12.759Z,16.88
2019-04-22T20:46:24.243Z,16.90
2019-04-22T20:49:04.964Z,16.81
2019-04-22T20:51:43.784Z,16.73
2019-04-22T20:54:09.027Z,16.76
2019-04-22T20:56:33.771Z,16.63
2019-04-22T20:59:14.133Z,16.59
2019-04-22T21:01:47.730Z,16.52
2019-04-22T21:04:11.579Z,16.63
2019-04-22T21:06:58.681Z,16.59
2019-04-22T21:09:43.226Z,16.47
2019-04-22T21:12:13.771Z,16.37
2019-04-22T21:15:00.481Z,16.30
2019-04-22T21:17:34.810Z,16.23
2019-04-22T21:20:14.002Z,16.19
2019-04-22T21:22:42.040Z,16.18
2019-04-22T21:25:06.098Z,16.15
2019-04-22T21:27:50.438Z,16.03
2019-04-22T21:30:32.272Z,16.01
2019-04-22T21:33:37.895Z,15.92
2019-04-22T21:36:29.717Z,15.87
2019-04-22T21:38:44.037Z,15.85
2019-04-22T21:41:20.435Z,15.80
2019-04-22T21:43:53.623Z,15.78
2019-04-22T21:46:22.950Z,15.72
2019-04-22T21:49:06.360Z,15.70
2019-04-22T21:51:49.645Z,15.63
2019-04-22T21:54:26.990Z,15.63
2019-04-22T21:57:24.183Z,15.52
2019-04-22T21:59:54.412Z,15.52
2019-04-22T22:02:39.555Z,15.43
2019-04-22T22:05:07.512Z,15.46
2019-04-22T22:07:49.417Z,15.38
2019-04-22T22:10:34.429Z,15.29
2019-04-22T22:13:06.209Z,15.35
2019-04-22T22:15:37.606Z,15.32
2019-04-22T22:18:16.543Z,15.23
2019-04-22T22:21:13.039Z,15.12
2019-04-22T22:23:31.198Z,15.09
2019-04-22T22:25:57.095Z,14.95
2019-04-22T22:28:51.716Z,14.99
2019-04-22T22:31:15.483Z,14.90
2019-04-22T22:33:41.793Z,14.86
2019-04-22T22:36:12.044Z,14.78
2019-04-22T22:38:46.807Z,14.79
2019-04-22T22:41:14.117Z,14.75
2019-04-22T22:43:51.158Z,14.72
2019-04-22T22:46:34.106Z,14.64
2019-04-22T22:49:18.588Z,14.59
2019-04-22T22:52:02.501Z,14.53
2019-04-22T22:54:23.744Z,14.48
2019-04-22T22:57:11.989Z,14.54
2019-04-22T22:59:33.363Z,14.47
2019-04-22T23:02:08.185Z,14.40
2019-04-22T23:04:39.896Z,14.40
2019-04-22T23:07:30.117Z,14.32
2019-04-22T23:09:59.949Z,14.29
2019-04-22T23:12:46.545Z,14.28
2019-04-22T23:15:04.761Z,14.22
2019-04-22T23:17:26.085Z,14.16
2019-04-22T23:19:56.058Z,13.97
2019-04-22T23:22:39.616Z,14.03
2019-04-22T23:25:22.331Z,13.89
2019-04-22T23:28:03.945Z,13.86
2019-04-22T23:31:18.953Z,13.80
2019-04-22T23:33:49.502Z,13.78
2019-04-22T23:36:49.906Z,13.75
2019-04-22T23:39:35.610Z,13.70
2019-04-22T23:42:07.874Z,13.65
2019-04-22T23:44:38.151Z,13.64
2019-04-22T23:47:08.735Z,13.66
2019-04-22T23:53:03.059Z,13.53
2019-04-22T23:55:43.608Z,13.54
2019-04-22T23:58:27.069Z,13.48
